Time;durP1;ratioP1;P1;durP2;ratioP2;P2;SDS_P1;SDS_P2;PMS_P1;PMS_P2;Temp;Humidity;BMP_temperature;BMP_pressure;BME280_temperature;BME280_humidity;BME280_pressure;Samples;Min_cycle;Max_cycle;Signal;HPM_P1;HPM_P2
2021/05/12 00:01:23;;;;;;;10.20;5.43;;;25.20;42.10;;;;;;6064079;28;80536;-66
2021/05/12 00:04:23;;;;;;;11.30;5.93;;;25.20;42.00;;;;;;6060783;28;80272;-66
2021/05/12 00:07:24;;;;;;;10.50;4.97;;;25.20;42.10;;;;;;6065626;28;83595;-66
2021/05/12 00:10:24;;;;;;;9.07;5.22;;;25.20;42.10;;;;;;6062081;28;81770;-66
2021/05/12 00:13:25;;;;;;;9.23;5.20;;;25.20;42.10;;;;;;6064491;28;80585;-66
2021/05/12 00:16:26;;;;;;;7.38;4.82;;;25.20;42.10;;;;;;6066540;28;80217;-66
2021/05/12 00:19:27;;;;;;;8.15;4.72;;;25.10;41.80;;;;;;6067608;28;87475;-66
2021/05/12 00:22:38;;;;;;;9.35;4.70;;;25.10;42.50;;;;;;6065269;28;80568;-65
2021/05/12 00:25:39;;;;;;;8.40;4.45;;;25.10;42.00;;;;;;6066761;28;80432;-65
2021/05/12 00:28:39;;;;;;;7.28;5.10;;;25.10;42.10;;;;;;6066315;28;82308;-66
2021/05/12 00:31:40;;;;;;;7.82;4.82;;;25.10;41.90;;;;;;6065255;28;81037;-66
2021/05/12 00:34:40;;;;;;;9.77;4.97;;;25.10;42.30;;;;;;6063500;28;81262;-65
2021/05/12 00:37:41;;;;;;;7.63;4.75;;;25.10;42.10;;;;;;6061780;28;83289;-66
2021/05/12 00:40:41;;;;;;;7.30;4.55;;;25.10;42.20;;;;;;6073272;28;82136;-66
2021/05/12 00:43:42;;;;;;;6.68;4.35;;;25.00;42.00;;;;;;6064359;28;80444;-64
2021/05/12 00:46:42;;;;;;;7.55;4.72;;;25.10;42.20;;;;;;6070758;28;81276;-65
2021/05/12 00:49:43;;;;;;;6.57;4.40;;;25.10;42.20;;;;;;6066528;28;80702;-65
2021/05/12 00:52:43;;;;;;;9.35;4.97;;;25.00;42.20;;;;;;6072097;28;80843;-68
2021/05/12 00:55:44;;;;;;;7.97;4.68;;;25.00;42.20;;;;;;6067018;28;80830;-66
2021/05/12 00:58:45;;;;;;;7.40;4.45;;;25.00;42.10;;;;;;6060120;28;82902;-65
2021/05/12 01:01:45;;;;;;;8.60;4.93;;;25.00;42.10;;;;;;6068992;28;80613;-66
2021/05/12 01:04:46;;;;;;;7.13;4.40;;;25.00;42.00;;;;;;6061176;28;80680;-65
2021/05/12 01:07:47;;;;;;;6.93;4.65;;;25.00;42.10;;;;;;6063384;28;81966;-67
2021/05/12 01:10:47;;;;;;;7.18;4.00;;;25.00;42.10;;;;;;6061345;28;80592;-67
2021/05/12 01:13:49;;;;;;;10.27;4.65;;;25.00;42.20;;;;;;6063066;28;80409;-67
2021/05/12 01:16:49;;;;;;;8.90;4.65;;;25.00;42.10;;;;;;6061021;28;80560;-67
2021/05/12 01:19:50;;;;;;;7.93;4.68;;;25.00;42.10;;;;;;6061950;28;80893;-66
2021/05/12 01:22:50;;;;;;;7.18;4.70;;;25.00;42.10;;;;;;6061433;28;80453;-66
2021/05/12 01:25:51;;;;;;;8.75;4.68;;;25.00;42.00;;;;;;6064909;28;81638;-65
2021/05/12 01:28:51;;;;;;;7.22;4.20;;;25.00;42.00;;;;;;6060932;28;80530;-65
2021/05/12 01:31:52;;;;;;;8.32;4.53;;;25.00;42.00;;;;;;6064778;28;80424;-65
2021/05/12 01:34:52;;;;;;;10.75;4.25;;;25.00;42.00;;;;;;6062648;28;80306;-65
2021/05/12 01:37:53;;;;;;;6.50;3.92;;;24.90;42.00;;;;;;6060566;28;81527;-66
2021/05/12 01:40:53;;;;;;;8.20;4.80;;;24.90;42.10;;;;;;6060987;28;83466;-66
2021/05/12 01:43:54;;;;;;;6.40;4.18;;;24.90;42.00;;;;;;6062226;28;80919;-66
2021/05/12 01:46:54;;;;;;;6.47;4.10;;;24.90;41.90;;;;;;6067759;28;83078;-66
2021/05/12 01:49:55;;;;;;;7.70;4.38;;;24.90;41.80;;;;;;6062302;28;80910;-67
2021/05/12 01:52:55;;;;;;;9.60;4.30;;;24.90;41.90;;;;;;6066174;28;80336;-66
2021/05/12 01:55:56;;;;;;;8.98;4.80;;;24.90;41.90;;;;;;6063286;28;81255;-66
2021/05/12 01:58:56;;;;;;;6.35;4.35;;;24.90;42.00;;;;;;6063773;28;83192;-66
2021/05/12 02:01:57;;;;;;;7.95;4.03;;;24.90;41.90;;;;;;6060472;28;82101;-66
2021/05/12 02:04:57;;;;;;;15.57;4.82;;;24.90;41.90;;;;;;6062787;28;80255;-67
2021/05/12 02:07:58;;;;;;;8.52;4.57;;;24.90;41.80;;;;;;6061306;28;80456;-65
2021/05/12 02:10:58;;;;;;;7.75;4.10;;;24.90;41.90;;;;;;6064355;28;81366;-65
2021/05/12 02:13:59;;;;;;;8.25;3.95;;;24.90;41.80;;;;;;6057093;28;80647;-66
2021/05/12 02:16:59;;;;;;;5.50;4.35;;;24.90;41.70;;;;;;6061041;28;80081;-65
2021/05/12 02:20:00;;;;;;;10.13;4.32;;;24.80;41.60;;;;;;6062013;28;80687;-66
2021/05/12 02:23:00;;;;;;;11.20;4.53;;;24.80;41.60;;;;;;6075839;28;83733;-65
2021/05/12 02:26:01;;;;;;;13.48;5.70;;;24.80;41.50;;;;;;6064954;28;80566;-65
2021/05/12 02:29:01;;;;;;;6.40;4.38;;;24.80;41.50;;;;;;6060026;28;81786;-66
2021/05/12 02:32:02;;;;;;;10.38;4.47;;;24.80;41.40;;;;;;6061660;28;80391;-66
2021/05/12 02:35:02;;;;;;;9.85;4.47;;;24.80;41.40;;;;;;6070198;28;80907;-66
2021/05/12 02:38:03;;;;;;;5.22;3.78;;;24.80;41.40;;;;;;6065524;28;81555;-67
2021/05/12 02:41:03;;;;;;;11.40;4.75;;;24.80;41.40;;;;;;6062416;28;80379;-66
2021/05/12 02:44:04;;;;;;;8.20;4.53;;;24.70;41.30;;;;;;6064138;28;81989;-66
2021/05/12 02:47:04;;;;;;;12.15;4.45;;;24.70;41.40;;;;;;6061865;28;80177;-66
2021/05/12 02:50:05;;;;;;;10.55;4.70;;;24.70;41.40;;;;;;6060432;28;83193;-66
2021/05/12 02:53:05;;;;;;;9.45;4.78;;;24.70;41.40;;;;;;6065275;28;80411;-65
2021/05/12 02:56:06;;;;;;;8.18;4.32;;;24.70;41.30;;;;;;6060952;28;80386;-66
2021/05/12 02:59:07;;;;;;;7.75;4.22;;;24.70;41.40;;;;;;6059041;28;81363;-66
2021/05/12 03:02:07;;;;;;;7.88;4.68;;;24.70;41.30;;;;;;6060762;28;80269;-67
2021/05/12 03:05:08;;;;;;;8.45;5.00;;;24.70;41.30;;;;;;6068509;28;80313;-67
2021/05/12 03:08:08;;;;;;;7.80;4.28;;;24.70;41.20;;;;;;5960442;28;80822;-66
2021/05/12 03:11:09;;;;;;;7.15;4.60;;;24.70;41.20;;;;;;6058643;28;81001;-67
2021/05/12 03:14:09;;;;;;;11.65;4.80;;;24.70;41.30;;;;;;6063247;28;80391;-67
2021/05/12 03:17:10;;;;;;;8.45;4.80;;;24.70;41.20;;;;;;6060499;28;81425;-67
2021/05/12 03:20:10;;;;;;;10.30;5.20;;;24.60;41.10;;;;;;6063042;28;80572;-67
2021/05/12 03:23:11;;;;;;;13.13;5.53;;;24.70;41.20;;;;;;6060486;28;81008;-65
2021/05/12 03:26:11;;;;;;;9.25;5.20;;;24.60;41.20;;;;;;6059884;28;80397;-65
2021/05/12 03:29:12;;;;;;;7.97;4.30;;;24.70;41.20;;;;;;6058975;28;80598;-66
2021/05/12 03:32:12;;;;;;;9.15;4.88;;;24.60;41.10;;;;;;6068333;28;80459;-67
2021/05/12 03:35:13;;;;;;;8.57;4.65;;;24.60;41.20;;;;;;6062645;28;81595;-65
2021/05/12 03:38:13;;;;;;;7.97;4.65;;;24.60;41.20;;;;;;6060475;28;80903;-67
2021/05/12 03:41:14;;;;;;;8.27;4.90;;;24.60;41.30;;;;;;6059688;28;80771;-66
2021/05/12 03:44:14;;;;;;;11.70;5.28;;;24.60;41.20;;;;;;6058618;28;80615;-66
2021/05/12 03:47:15;;;;;;;8.23;4.57;;;24.60;41.80;;;;;;6063691;28;81643;-66
2021/05/12 03:50:16;;;;;;;10.30;5.32;;;24.60;41.20;;;;;;6059779;28;80509;-67
2021/05/12 03:53:16;;;;;;;11.85;5.60;;;24.60;41.30;;;;;;6065911;28;86853;-66
2021/05/12 03:56:17;;;;;;;11.23;4.78;;;24.60;41.20;;;;;;6061407;28;80950;-64
2021/05/12 03:59:17;;;;;;;12.63;5.90;;;24.60;41.20;;;;;;6067186;28;80753;-65
2021/05/12 04:02:18;;;;;;;9.55;5.00;;;24.60;41.30;;;;;;6058604;28;80804;-64
2021/05/12 04:05:18;;;;;;;8.15;5.68;;;24.60;41.20;;;;;;6061480;28;81374;-64
2021/05/12 04:08:19;;;;;;;13.27;5.22;;;24.60;41.20;;;;;;6074121;28;83758;-65
2021/05/12 04:11:19;;;;;;;10.73;5.63;;;24.60;41.20;;;;;;6064986;28;81289;-67
2021/05/12 04:14:20;;;;;;;9.40;4.85;;;24.60;41.10;;;;;;6064713;28;81046;-66
2021/05/12 04:17:20;;;;;;;12.93;5.65;;;24.60;41.20;;;;;;6061095;28;80661;-68
2021/05/12 04:20:21;;;;;;;10.63;5.05;;;24.60;41.80;;;;;;6063201;28;80995;-67
2021/05/12 04:23:21;;;;;;;13.05;5.00;;;24.60;41.50;;;;;;6066413;28;81484;-63
2021/05/12 04:26:22;;;;;;;12.65;5.22;;;24.60;41.90;;;;;;6059428;28;80493;-66
2021/05/12 04:29:22;;;;;;;10.80;5.07;;;24.70;41.80;;;;;;6061794;28;80929;-65
2021/05/12 04:32:23;;;;;;;12.18;5.32;;;24.80;41.50;;;;;;6062403;28;80963;-65
2021/05/12 04:35:24;;;;;;;9.98;5.30;;;24.90;41.50;;;;;;6064903;28;80545;-67
2021/05/12 04:38:24;;;;;;;19.50;5.82;;;24.90;41.60;;;;;;6062772;28;83263;-66
2021/05/12 04:41:25;;;;;;;7.35;4.68;;;24.90;41.40;;;;;;6065244;28;81364;-67
2021/05/12 04:44:25;;;;;;;10.05;5.10;;;24.90;41.30;;;;;;6064330;28;80733;-67
2021/05/12 04:47:26;;;;;;;9.73;4.93;;;25.00;41.70;;;;;;6069712;28;80346;-67
2021/05/12 04:50:26;;;;;;;9.10;4.90;;;25.00;41.50;;;;;;6071933;28;87583;-68
2021/05/12 04:53:27;;;;;;;8.23;5.15;;;25.00;41.30;;;;;;6069400;28;80528;-68
2021/05/12 04:56:27;;;;;;;12.40;5.43;;;25.10;41.30;;;;;;6060867;28;81728;-67
2021/05/12 04:59:28;;;;;;;10.07;4.70;;;25.10;41.50;;;;;;6062288;28;80687;-67
2021/05/12 05:02:28;;;;;;;13.15;4.68;;;25.10;41.60;;;;;;6055116;28;80437;-69
2021/05/12 05:05:29;;;;;;;9.95;5.47;;;25.10;41.30;;;;;;6058150;28;83136;-67
2021/05/12 05:08:29;;;;;;;15.57;4.85;;;25.10;41.50;;;;;;6061692;28;81230;-67
2021/05/12 05:11:30;;;;;;;8.25;4.88;;;25.10;41.20;;;;;;6061259;28;81312;-70
2021/05/12 05:14:30;;;;;;;10.77;5.07;;;25.10;41.90;;;;;;6059588;28;80684;-68
2021/05/12 05:17:31;;;;;;;9.23;5.70;;;25.10;41.90;;;;;;6060826;28;81391;-67
2021/05/12 05:20:33;;;;;;;14.07;5.15;;;25.10;42.20;;;;;;6052376;28;83390;-70
2021/05/12 05:23:33;;;;;;;10.13;5.35;;;25.10;42.50;;;;;;6062188;28;80474;-67
2021/05/12 05:26:34;;;;;;;10.77;5.10;;;25.20;42.50;;;;;;6058035;28;81470;-69
2021/05/12 05:29:34;;;;;;;12.20;5.50;;;25.10;42.90;;;;;;6060115;28;81053;-68
2021/05/12 05:32:35;;;;;;;8.20;5.10;;;25.20;43.00;;;;;;6060702;28;81822;-67
2021/05/12 05:35:54;;;;;;;11.30;4.97;;;25.30;43.10;;;;;;6065172;28;80819;-67
2021/05/12 05:39:13;;;;;;;11.35;5.28;;;25.30;42.90;;;;;;6059479;28;84699;-67
2021/05/12 05:42:32;;;;;;;6.28;4.40;;;25.30;42.90;;;;;;6056627;28;80431;-69
2021/05/12 05:45:51;;;;;;;16.00;5.13;;;25.30;42.60;;;;;;6061437;28;81220;-68
2021/05/12 05:49:11;;;;;;;13.63;4.65;;;25.30;42.40;;;;;;6059153;28;80606;-66
2021/05/12 05:52:30;;;;;;;11.55;5.20;;;25.30;42.50;;;;;;6058432;28;80832;-66
2021/05/12 05:55:56;;;;;;;8.77;4.70;;;25.30;42.40;;;;;;6044919;28;80972;-64
2021/05/12 05:59:15;;;;;;;9.73;4.75;;;25.30;42.30;;;;;;6061700;28;81081;-63
2021/05/12 06:02:35;;;;;;;10.65;4.43;;;25.30;42.40;;;;;;6057412;28;80328;-66
2021/05/12 06:05:54;;;;;;;8.18;4.35;;;25.30;42.40;;;;;;6060122;28;80195;-63
2021/05/12 06:09:13;;;;;;;9.07;4.78;;;25.30;42.50;;;;;;6062355;28;85120;-63
2021/05/12 06:12:32;;;;;;;8.38;4.85;;;25.30;42.20;;;;;;6058065;28;80701;-64
2021/05/12 06:15:52;;;;;;;11.73;5.30;;;25.30;41.90;;;;;;6061094;28;80240;-64
2021/05/12 06:19:11;;;;;;;11.02;4.82;;;25.30;41.80;;;;;;6061287;28;80704;-63
2021/05/12 06:22:30;;;;;;;15.48;5.15;;;25.30;41.90;;;;;;6054663;28;80669;-64
2021/05/12 06:25:50;;;;;;;22.05;4.93;;;25.30;41.70;;;;;;6037063;28;80537;-64
2021/05/12 06:29:26;;;;;;;9.38;4.00;;;25.30;42.30;;;;;;6010308;28;80405;-65
2021/05/12 06:32:47;;;;;;;10.02;5.13;;;25.30;41.80;;;;;;6065284;28;80527;-63
2021/05/12 06:36:06;;;;;;;12.13;4.93;;;25.30;41.90;;;;;;6056266;28;85021;-64
2021/05/12 06:39:25;;;;;;;13.20;4.10;;;25.30;41.60;;;;;;6056872;28;80815;-64
2021/05/12 06:42:27;;;;;;;10.82;4.95;;;25.30;41.00;;;;;;6056211;28;80191;-64
2021/05/12 06:45:27;;;;;;;13.75;5.50;;;25.30;40.90;;;;;;6064558;28;80398;-64
2021/05/12 06:48:28;;;;;;;11.98;4.53;;;25.20;40.70;;;;;;6062695;28;81380;-65
2021/05/12 06:51:28;;;;;;;12.05;4.65;;;25.20;40.60;;;;;;6064917;28;81905;-64
2021/05/12 06:54:29;;;;;;;10.13;4.25;;;25.20;40.40;;;;;;6060947;28;80637;-65
2021/05/12 06:57:29;;;;;;;10.18;4.50;;;25.10;40.40;;;;;;6064394;28;80983;-65
2021/05/12 07:00:30;;;;;;;11.45;4.25;;;25.10;40.40;;;;;;6057594;28;80946;-64
2021/05/12 07:03:30;;;;;;;13.75;4.68;;;25.10;40.30;;;;;;6062120;28;81976;-64
2021/05/12 07:06:31;;;;;;;15.02;5.57;;;25.10;40.70;;;;;;6062780;28;80662;-64
2021/05/12 07:09:31;;;;;;;21.20;5.53;;;25.10;40.90;;;;;;6062429;28;82104;-65
2021/05/12 07:12:32;;;;;;;13.73;6.10;;;25.10;41.40;;;;;;6063779;28;80514;-64
2021/05/12 07:15:33;;;;;;;11.90;4.82;;;25.10;41.40;;;;;;6063769;28;81403;-65
2021/05/12 07:18:33;;;;;;;11.85;5.75;;;25.10;41.80;;;;;;6062393;28;80525;-65
2021/05/12 07:21:34;;;;;;;12.82;4.55;;;25.20;41.50;;;;;;6065284;28;80602;-66
2021/05/12 07:24:34;;;;;;;12.52;5.75;;;25.20;41.70;;;;;;6069984;28;80858;-64
2021/05/12 07:27:35;;;;;;;9.05;4.78;;;25.20;41.50;;;;;;6065560;28;80840;-66
2021/05/12 07:30:35;;;;;;;16.00;4.95;;;25.20;41.70;;;;;;6062203;28;80461;-63
2021/05/12 07:33:36;;;;;;;12.27;4.88;;;25.10;41.20;;;;;;6063374;28;81210;-64
2021/05/12 07:36:37;;;;;;;9.73;4.10;;;25.20;41.50;;;;;;6063657;28;82941;-62
2021/05/12 07:39:37;;;;;;;6.10;3.95;;;25.10;41.30;;;;;;6060771;28;82559;-63
2021/05/12 07:42:40;;;;;;;8.63;4.28;;;25.20;41.30;;;;;;6064095;28;80453;-63
2021/05/12 07:45:41;;;;;;;11.43;4.40;;;25.10;41.50;;;;;;6062118;28;83520;-64
2021/05/12 07:48:41;;;;;;;13.65;3.92;;;25.20;42.10;;;;;;6063516;28;90696;-63
2021/05/12 07:51:42;;;;;;;12.15;4.60;;;25.20;41.10;;;;;;6062259;28;81656;-64
2021/05/12 07:54:42;;;;;;;11.43;4.22;;;25.20;41.20;;;;;;6059928;28;80532;-64
2021/05/12 07:57:43;;;;;;;13.13;4.20;;;25.20;41.30;;;;;;6052560;28;80779;-63
2021/05/12 08:00:45;;;;;;;12.95;4.90;;;25.20;41.40;;;;;;6059109;28;80284;-64
2021/05/12 08:03:46;;;;;;;12.60;4.80;;;25.20;41.10;;;;;;6061824;28;83647;-63
2021/05/12 08:06:46;;;;;;;19.08;5.28;;;25.30;41.30;;;;;;6054270;28;80649;-63
2021/05/12 08:09:47;;;;;;;7.80;3.85;;;25.20;41.30;;;;;;6063933;28;80610;-63
2021/05/12 08:12:47;;;;;;;36.67;5.07;;;25.20;41.60;;;;;;6053343;28;80448;-64
2021/05/12 08:15:48;;;;;;;13.65;4.80;;;25.20;41.10;;;;;;6060696;28;81208;-64
2021/05/12 08:18:48;;;;;;;11.27;4.35;;;25.20;41.40;;;;;;6064251;28;81443;-65
2021/05/12 08:21:49;;;;;;;5.22;3.53;;;25.30;42.10;;;;;;6064447;28;80588;-65
2021/05/12 08:24:49;;;;;;;23.42;7.50;;;25.30;42.30;;;;;;6062474;28;81737;-63
2021/05/12 08:27:53;;;;;;;96.70;30.30;;;25.30;41.30;;;;;;6068077;28;80711;-64
2021/05/12 08:30:56;;;;;;;132.77;44.42;;;25.30;41.10;;;;;;6059149;28;83444;-65
2021/05/12 08:33:56;;;;;;;490.20;168.38;;;25.30;41.10;;;;;;6058472;28;83590;-63
2021/05/12 08:36:57;;;;;;;72.38;23.70;;;25.30;41.30;;;;;;6051574;28;86270;-63
2021/05/12 08:39:57;;;;;;;42.25;13.23;;;25.30;41.50;;;;;;6063564;28;87428;-64
2021/05/12 08:42:58;;;;;;;19.60;7.25;;;25.30;41.90;;;;;;6059232;28;83343;-64
2021/05/12 08:45:58;;;;;;;13.98;5.10;;;25.30;41.40;;;;;;6069583;28;82850;-63
2021/05/12 08:48:59;;;;;;;19.92;5.13;;;25.30;41.60;;;;;;6057836;28;80616;-64
2021/05/12 08:51:59;;;;;;;15.13;5.07;;;25.30;41.30;;;;;;6068466;28;81698;-63
2021/05/12 08:55:00;;;;;;;9.15;4.10;;;25.30;41.10;;;;;;6060094;28;81898;-63
2021/05/12 08:58:00;;;;;;;8.95;3.88;;;25.30;41.30;;;;;;6059609;28;80300;-63
2021/05/12 09:01:01;;;;;;;7.57;4.40;;;25.30;41.50;;;;;;6063009;28;81103;-65
2021/05/12 09:04:02;;;;;;;8.27;3.70;;;25.30;41.10;;;;;;6061339;28;84000;-64
2021/05/12 09:07:02;;;;;;;10.88;3.95;;;25.40;41.40;;;;;;6061173;28;80395;-65
2021/05/12 09:10:03;;;;;;;8.95;3.78;;;25.40;41.40;;;;;;6061169;28;80668;-64
2021/05/12 09:13:03;;;;;;;8.48;3.67;;;25.40;41.60;;;;;;6063107;28;80552;-62
2021/05/12 09:16:04;;;;;;;10.07;3.78;;;25.40;41.50;;;;;;6061713;28;81876;-63
2021/05/12 09:19:05;;;;;;;9.50;4.25;;;25.40;42.00;;;;;;6058963;28;84264;-63
2021/05/12 09:22:06;;;;;;;6.32;3.38;;;25.40;41.40;;;;;;6051845;28;80586;-63
2021/05/12 09:25:06;;;;;;;9.27;3.42;;;25.40;41.70;;;;;;6060254;28;80855;-62
2021/05/12 09:28:07;;;;;;;18.95;4.00;;;25.40;42.00;;;;;;6058385;28;80790;-64
2021/05/12 09:31:07;;;;;;;10.13;3.40;;;25.40;41.40;;;;;;6057760;28;81050;-63
2021/05/12 09:34:11;;;;;;;8.60;3.60;;;25.40;41.30;;;;;;6052742;28;83189;-62
2021/05/12 09:37:12;;;;;;;6.72;3.50;;;25.40;41.40;;;;;;6050109;28;80661;-63
2021/05/12 09:40:12;;;;;;;9.10;3.70;;;25.40;41.00;;;;;;6052485;28;80796;-62
2021/05/12 09:43:15;;;;;;;7.93;4.15;;;25.40;40.70;;;;;;6051518;28;81644;-63
2021/05/12 09:46:16;;;;;;;9.45;3.85;;;25.40;40.70;;;;;;6055069;28;80428;-62
2021/05/12 09:49:17;;;;;;;5.68;3.28;;;25.40;41.10;;;;;;6058512;28;80807;-64
2021/05/12 09:52:18;;;;;;;10.57;3.42;;;25.40;41.10;;;;;;6061296;28;80174;-66
2021/05/12 09:55:18;;;;;;;9.75;3.58;;;25.40;41.50;;;;;;6063768;28;80621;-63
2021/05/12 09:58:21;;;;;;;9.52;3.85;;;25.40;41.40;;;;;;6065038;28;80323;-63
2021/05/12 10:01:21;;;;;;;6.43;3.35;;;25.40;42.70;;;;;;6058869;28;80939;-64
2021/05/12 10:04:22;;;;;;;8.55;3.78;;;25.50;42.00;;;;;;6064858;28;82710;-64
2021/05/12 10:07:23;;;;;;;6.82;3.17;;;25.50;41.50;;;;;;6062638;28;81654;-64
2021/05/12 10:10:23;;;;;;;13.40;4.43;;;25.50;42.10;;;;;;6060549;28;84048;-65
2021/05/12 10:13:24;;;;;;;11.43;4.45;;;25.50;41.70;;;;;;6063805;28;81101;-65
2021/05/12 10:16:24;;;;;;;11.00;4.35;;;25.50;42.50;;;;;;6051599;28;82899;-65
2021/05/12 10:19:25;;;;;;;11.05;4.30;;;25.50;42.10;;;;;;6059991;28;81019;-65
2021/05/12 10:22:25;;;;;;;18.38;4.50;;;25.50;43.30;;;;;;6062051;28;80324;-65
2021/05/12 10:25:26;;;;;;;9.00;4.55;;;25.50;43.90;;;;;;6064692;28;81308;-64
2021/05/12 10:28:26;;;;;;;13.15;4.15;;;25.50;44.30;;;;;;6059448;28;80540;-64
2021/05/12 10:31:27;;;;;;;10.65;4.40;;;25.50;44.40;;;;;;6048652;28;80900;-65
2021/05/12 10:34:27;;;;;;;13.45;5.63;;;25.60;44.90;;;;;;6054238;28;80672;-64
2021/05/12 10:37:28;;;;;;;13.27;5.03;;;25.60;44.30;;;;;;6069246;28;81066;-64
2021/05/12 10:40:30;;;;;;;13.88;5.18;;;25.60;45.10;;;;;;6067925;28;82319;-65
2021/05/12 10:43:32;;;;;;;15.25;5.47;;;25.60;46.00;;;;;;6058992;28;81231;-64
2021/05/12 10:46:34;;;;;;;14.85;4.90;;;25.60;45.60;;;;;;6051138;28;81479;-64
2021/05/12 10:49:34;;;;;;;12.82;5.70;;;25.70;46.10;;;;;;6061573;28;80764;-64
2021/05/12 10:52:35;;;;;;;9.05;4.15;;;25.70;45.50;;;;;;6060894;28;81485;-64
2021/05/12 10:55:35;;;;;;;21.88;7.47;;;25.70;44.10;;;;;;6061735;28;81593;-64
2021/05/12 10:58:37;;;;;;;27.23;8.93;;;25.70;46.00;;;;;;6063918;28;81414;-64
2021/05/12 11:01:38;;;;;;;13.65;6.28;;;25.80;46.30;;;;;;6061879;28;81099;-64
2021/05/12 11:04:38;;;;;;;14.35;4.50;;;25.70;45.90;;;;;;6059344;28;81194;-65
2021/05/12 11:07:39;;;;;;;14.93;4.90;;;25.70;40.90;;;;;;6063540;28;80967;-63
2021/05/12 11:10:39;;;;;;;5.78;4.20;;;25.70;42.50;;;;;;6063494;28;80735;-66
2021/05/12 11:13:41;;;;;;;8.20;4.32;;;25.70;41.40;;;;;;6050931;28;81476;-65
2021/05/12 11:16:41;;;;;;;10.77;4.05;;;25.70;41.70;;;;;;6052899;28;80870;-65
2021/05/12 11:19:42;;;;;;;13.65;3.65;;;25.80;41.40;;;;;;6059814;28;83530;-65
2021/05/12 11:25:45;;;;;;;11.35;3.90;;;25.80;41.70;;;;;;6058726;28;80575;-65
2021/05/12 11:29:01;;;;;;;8.77;3.80;;;25.90;41.60;;;;;;6055234;28;80716;-64
2021/05/12 11:32:02;;;;;;;;;;;25.90;41.80;;;;;;6055286;28;83867;-64
2021/05/12 11:35:02;;;;;;;5.05;2.97;;;25.90;41.80;;;;;;6063756;28;81496;-66
2021/05/12 11:38:03;;;;;;;6.28;3.17;;;26.00;40.90;;;;;;6057442;28;80293;-65
2021/05/12 11:41:04;;;;;;;7.68;3.20;;;25.90;40.00;;;;;;6050989;28;82985;-66
2021/05/12 11:44:04;;;;;;;7.70;3.20;;;25.90;39.30;;;;;;6056780;28;80320;-67
2021/05/12 11:47:05;;;;;;;5.05;2.92;;;25.90;39.30;;;;;;6055950;28;80633;-67
2021/05/12 11:50:05;;;;;;;7.68;2.92;;;25.80;39.00;;;;;;6060906;28;80638;-67
2021/05/12 11:53:06;;;;;;;6.30;2.60;;;25.80;39.20;;;;;;6060018;28;82241;-67
2021/05/12 11:56:06;;;;;;;3.58;2.30;;;25.90;39.50;;;;;;6054001;28;80906;-67
2021/05/12 11:59:07;;;;;;;13.30;2.83;;;25.90;39.50;;;;;;6056699;28;80607;-67
2021/05/12 12:02:10;;;;;;;7.47;3.08;;;25.90;39.30;;;;;;6055771;28;80898;-65
2021/05/12 12:05:12;;;;;;;5.93;2.92;;;25.90;39.20;;;;;;6061239;28;81365;-66
2021/05/12 12:08:13;;;;;;;8.60;3.17;;;25.90;39.80;;;;;;6063079;28;80803;-66
2021/05/12 12:11:13;;;;;;;12.48;3.35;;;25.90;39.60;;;;;;6067587;28;80817;-67
2021/05/12 12:14:14;;;;;;;18.40;5.80;;;25.90;39.80;;;;;;6062652;28;80736;-66
2021/05/12 12:17:15;;;;;;;18.52;5.95;;;25.90;39.90;;;;;;6060549;28;81579;-67
2021/05/12 12:20:15;;;;;;;19.42;6.53;;;25.90;40.50;;;;;;6062687;28;81550;-67
2021/05/12 12:23:17;;;;;;;17.25;5.82;;;25.90;40.70;;;;;;6060391;28;81371;-65
2021/05/12 12:26:19;;;;;;;23.85;6.65;;;25.90;40.70;;;;;;6062209;28;83566;-66
2021/05/12 12:29:19;;;;;;;23.10;7.15;;;25.90;40.80;;;;;;6070801;28;80992;-66
2021/05/12 12:32:20;;;;;;;9.88;4.18;;;25.90;40.90;;;;;;6067123;28;81633;-67
2021/05/12 12:35:21;;;;;;;8.98;3.75;;;25.90;40.40;;;;;;6062573;28;82063;-68
2021/05/12 12:38:22;;;;;;;6.95;3.10;;;25.90;39.60;;;;;;6063308;28;80740;-67
2021/05/12 12:41:22;;;;;;;7.22;2.92;;;25.90;39.50;;;;;;6074648;28;80556;-66
2021/05/12 12:44:22;;;;;;;7.95;2.78;;;25.90;39.20;;;;;;6067241;28;81370;-66
2021/05/12 12:47:23;;;;;;;5.60;3.17;;;25.90;39.20;;;;;;6060642;28;80712;-67
2021/05/12 12:50:24;;;;;;;6.15;2.67;;;25.90;39.90;;;;;;6063060;28;80800;-66
2021/05/12 12:53:29;;;;;;;7.35;2.88;;;25.90;40.00;;;;;;6066905;28;80525;-68
2021/05/12 12:56:29;;;;;;;7.28;3.00;;;25.90;40.30;;;;;;6059021;28;82700;-66
2021/05/12 12:59:30;;;;;;;3.65;2.33;;;25.90;39.60;;;;;;6060274;28;80581;-65
2021/05/12 13:02:30;;;;;;;9.43;2.58;;;25.90;39.30;;;;;;6056056;28;81471;-65
2021/05/12 13:05:31;;;;;;;6.18;3.13;;;25.90;39.70;;;;;;6059097;28;81943;-65
2021/05/12 13:08:31;;;;;;;8.88;2.80;;;25.90;40.10;;;;;;6056277;28;80272;-66
2021/05/12 13:11:32;;;;;;;4.43;2.75;;;25.90;39.90;;;;;;6058046;28;80131;-66
2021/05/12 13:14:32;;;;;;;4.13;2.42;;;25.90;40.00;;;;;;6059634;28;80891;-65
2021/05/12 13:17:35;;;;;;;7.65;2.22;;;25.90;40.20;;;;;;6058973;28;80807;-66
2021/05/12 13:20:36;;;;;;;4.32;2.70;;;25.90;40.30;;;;;;6067589;28;80943;-67
2021/05/12 13:23:36;;;;;;;3.17;2.50;;;25.90;40.30;;;;;;6062108;28;81382;-67
2021/05/12 13:26:38;;;;;;;6.90;2.72;;;26.00;40.30;;;;;;6058277;28;85366;-67
2021/05/12 13:29:39;;;;;;;11.35;3.25;;;26.00;40.40;;;;;;6054345;28;80640;-66
2021/05/12 13:32:40;;;;;;;3.88;2.20;;;26.10;40.70;;;;;;6053807;28;81349;-66
2021/05/12 13:35:40;;;;;;;4.13;2.33;;;26.00;40.40;;;;;;6058029;28;80361;-67
2021/05/12 13:38:41;;;;;;;5.35;2.33;;;26.00;40.10;;;;;;6061296;28;80720;-66
2021/05/12 13:41:41;;;;;;;4.28;2.65;;;26.10;40.20;;;;;;6057488;28;82120;-66
2021/05/12 13:44:42;;;;;;;5.35;2.35;;;26.10;40.60;;;;;;6058949;28;81305;-67
2021/05/12 13:47:43;;;;;;;8.18;2.40;;;26.10;40.20;;;;;;6063702;28;82554;-66
2021/05/12 13:50:43;;;;;;;8.30;3.25;;;26.10;40.10;;;;;;6060616;28;81309;-67
2021/05/12 13:57:21;;;;;;;9.02;2.42;;;26.10;40.70;;;;;;6064201;28;81546;-70
2021/05/12 14:03:31;;;;;;;6.78;2.75;;;26.10;40.40;;;;;;6059440;28;80917;-68
2021/05/12 14:06:32;;;;;;;9.90;3.13;;;26.10;40.60;;;;;;6059278;28;80457;-69
2021/05/12 14:09:40;;;;;;;11.27;2.90;;;26.10;41.00;;;;;;6061295;28;80427;-70
2021/05/12 14:12:43;;;;;;;5.63;2.72;;;26.10;41.10;;;;;;6059331;28;80768;-70
2021/05/12 14:18:44;;;;;;;12.10;2.70;;;26.10;41.30;;;;;;6058905;28;83693;-68
2021/05/12 14:21:45;;;;;;;4.90;2.50;;;26.10;41.40;;;;;;6062349;28;81654;-68
2021/05/12 14:24:46;;;;;;;8.95;2.80;;;26.10;41.20;;;;;;6060751;28;80469;-67
2021/05/12 14:27:47;;;;;;;7.22;3.17;;;26.10;41.20;;;;;;6062252;28;80455;-68
2021/05/12 14:30:50;;;;;;;6.78;2.90;;;26.10;41.00;;;;;;6060241;28;80384;-68
2021/05/12 14:33:51;;;;;;;5.57;2.85;;;26.10;41.20;;;;;;6060450;28;80465;-67
2021/05/12 14:36:52;;;;;;;6.53;2.85;;;26.10;41.00;;;;;;6064672;28;80536;-67
2021/05/12 14:39:53;;;;;;;8.23;2.70;;;26.10;41.00;;;;;;6062935;28;80836;-67
2021/05/12 14:42:56;;;;;;;5.20;2.63;;;26.10;41.20;;;;;;6062209;28;80769;-67
2021/05/12 14:45:56;;;;;;;7.10;2.90;;;26.10;41.00;;;;;;6065150;28;80487;-66
2021/05/12 14:48:57;;;;;;;9.73;3.10;;;26.10;40.60;;;;;;6059930;28;84521;-68
2021/05/12 14:52:09;;;;;;;9.23;2.53;;;26.10;40.60;;;;;;6059588;28;81161;-68
2021/05/12 15:07:55;;;;;;;7.45;3.00;;;26.10;39.70;;;;;;6056559;28;80848;-66
2021/05/12 15:10:56;;;;;;;7.13;2.53;;;26.10;39.50;;;;;;6061041;28;80505;-67
2021/05/12 15:13:56;;;;;;;9.90;3.10;;;26.10;39.50;;;;;;6060839;28;80917;-67
2021/05/12 15:16:56;;;;;;;7.03;3.00;;;26.10;39.60;;;;;;6063304;28;81325;-67
2021/05/12 15:19:57;;;;;;;5.13;2.65;;;26.10;39.70;;;;;;6061953;28;80910;-68
2021/05/12 15:22:57;;;;;;;8.30;2.85;;;26.10;39.90;;;;;;6065314;28;81658;-67
2021/05/12 15:25:58;;;;;;;10.30;2.80;;;26.10;40.10;;;;;;6062806;28;80949;-68
2021/05/12 15:28:59;;;;;;;9.15;2.80;;;26.10;40.10;;;;;;6063023;28;80847;-67
2021/05/12 15:31:59;;;;;;;7.95;2.47;;;26.10;39.90;;;;;;6061817;28;80634;-68
2021/05/12 15:35:00;;;;;;;9.20;2.85;;;26.10;39.80;;;;;;6062104;28;80265;-68
2021/05/12 15:38:00;;;;;;;6.60;2.80;;;26.10;39.90;;;;;;6064591;28;80572;-69
2021/05/12 15:41:01;;;;;;;6.22;2.70;;;26.10;39.20;;;;;;6060217;28;80345;-68
2021/05/12 15:44:01;;;;;;;9.60;2.40;;;26.00;38.70;;;;;;6064178;28;80785;-68
2021/05/12 15:47:02;;;;;;;7.22;2.88;;;26.10;38.60;;;;;;6062687;28;90111;-68
2021/05/12 15:50:02;;;;;;;4.53;2.38;;;26.00;39.00;;;;;;6054426;28;80408;-68
2021/05/12 15:53:03;;;;;;;6.32;2.85;;;26.10;38.30;;;;;;6062280;28;81748;-65
2021/05/12 15:56:05;;;;;;;4.40;2.67;;;26.10;38.40;;;;;;6062796;28;80854;-65
2021/05/12 15:59:05;;;;;;;5.35;2.40;;;26.10;38.40;;;;;;6062979;28;80558;-65
2021/05/12 16:02:06;;;;;;;4.40;2.10;;;26.00;38.40;;;;;;6063229;28;80930;-66
2021/05/12 16:05:07;;;;;;;3.70;2.40;;;26.10;38.00;;;;;;6063147;28;80523;-66
2021/05/12 16:08:07;;;;;;;8.93;2.95;;;26.10;38.50;;;;;;6062457;28;81677;-66